Union Cross, North Carolina
Current Conditions -  °F | °C
As of 8:54 PM on Saturday 20 Dec 2014 (Local Time) from KGSO Reporting Station
Overcast Overcast  
Wind Chill: 37°   Ceiling: 2700
Heat Index: 37°   Visibility: 7mi
Dew Point: 33°   Wind: 3mph
Humidity: 86%   Direction: 150°SSE
Pressure: 30.25"   Gusts: NA
Location:  36.1188°N, 80.075°W
Report Text: KGSO 210154Z 15003KT 7SM OVC027 03/01 A3025 RMK AO2 SLP248 T00280006
Loading
Personal Weather Stations






























Interactive Weather Map New forecast layout! Learn more

10-Day Weather Forecast

Advertisements
Track Severe Weather on mobile